Time;durP1;ratioP1;P1;durP2;ratioP2;P2;SDS_P1;SDS_P2;PMS_P1;PMS_P2;Temp;Humidity;BMP_temperature;BMP_pressure;BME280_temperature;BME280_humidity;BME280_pressure;Samples;Min_cycle;Max_cycle;Signal;HPM_P1;HPM_P2
2022/01/26 00:05:52;;;;;;;55.03;18.15;;;;;;;;;;6226459;28;20047;-63
2022/01/26 00:08:53;;;;;;;54.85;16.65;;;;;;;;;;6226003;28;20073;-61
2022/01/26 00:11:55;;;;;;;49.88;16.80;;;;;;;;;;6229745;28;20459;-60
2022/01/26 00:14:55;;;;;;;46.00;16.38;;;;;;;;;;6226820;28;20740;-61
2022/01/26 00:17:57;;;;;;;59.30;19.58;;;;;;;;;;6228480;28;20054;-60
2022/01/26 00:21:07;;;;;;;50.77;16.90;;;;;;;;;;6227256;28;20049;-61
2022/01/26 00:24:24;;;;;;;54.13;17.15;;;;;;;;;;6225111;28;20096;-61
2022/01/26 00:40:39;;;;;;;45.92;15.70;;;;;;;;;;6227477;28;20188;-61
2022/01/26 00:43:47;;;;;;;48.53;15.95;;;;;;;;;;6224271;28;20056;-60
2022/01/26 00:46:49;;;;;;;52.63;17.17;;;;;;;;;;6227087;28;20442;-61
2022/01/26 00:49:50;;;;;;;53.95;18.10;;;;;;;;;;6228063;28;20057;-61
2022/01/26 00:52:54;;;;;;;55.43;17.07;;;;;;;;;;6227813;28;20124;-60
2022/01/26 00:55:55;;;;;;;48.17;16.88;;;;;;;;;;6225663;28;20391;-61
2022/01/26 00:58:57;;;;;;;50.90;15.63;;;;;;;;;;6225519;28;20057;-61
2022/01/26 01:01:58;;;;;;;51.03;17.43;;;;;;;;;;6227639;28;20049;-60
2022/01/26 01:05:01;;;;;;;51.75;17.55;;;;;;;;;;6230560;28;20060;-61
2022/01/26 01:08:15;;;;;;;48.85;15.90;;;;;;;;;;6233169;28;20114;-61
2022/01/26 01:11:17;;;;;;;42.72;15.20;;;;;;;;;;6236970;28;20058;-61
2022/01/26 01:14:17;;;;;;;47.15;17.83;;;;;;;;;;6239084;28;20050;-61
2022/01/26 01:17:24;;;;;;;47.78;16.20;;;;;;;;;;6242305;28;20076;-61
2022/01/26 01:30:11;;;;;;;45.00;14.77;;;;;;;;;;6236332;28;20084;-62
2022/01/26 01:33:17;;;;;;;46.58;14.52;;;;;;;;;;6235069;28;20052;-61
2022/01/26 01:36:21;;;;;;;51.70;16.20;;;;;;;;;;6235402;28;20050;-62
2022/01/26 01:39:22;;;;;;;50.55;16.77;;;;;;;;;;6234553;28;20050;-62
2022/01/26 01:42:23;;;;;;;41.63;15.03;;;;;;;;;;6234665;28;20314;-62
2022/01/26 01:45:34;;;;;;;47.00;14.52;;;;;;;;;;6236712;28;20138;-60
2022/01/26 01:48:35;;;;;;;43.58;16.08;;;;;;;;;;6239393;28;20448;-60
2022/01/26 01:51:39;;;;;;;43.75;14.55;;;;;;;;;;6235186;28;20172;-61
2022/01/26 01:54:44;;;;;;;46.15;15.93;;;;;;;;;;6235103;28;20096;-62
2022/01/26 01:57:45;;;;;;;43.47;15.48;;;;;;;;;;6238697;28;20041;-62
2022/01/26 02:00:47;;;;;;;46.90;14.83;;;;;;;;;;6235543;28;20592;-62
2022/01/26 02:03:47;;;;;;;42.50;15.43;;;;;;;;;;6235277;28;20046;-61
2022/01/26 02:06:48;;;;;;;41.92;14.77;;;;;;;;;;6236842;28;20442;-62
2022/01/26 02:09:49;;;;;;;40.65;15.13;;;;;;;;;;6234911;28;20045;-60
2022/01/26 02:12:57;;;;;;;48.42;16.98;;;;;;;;;;6235411;28;20076;-61
2022/01/26 03:04:50;;;;;;;48.50;15.40;;;;;;;;;;6233891;28;19964;-60
2022/01/26 03:07:56;;;;;;;51.55;16.55;;;;;;;;;;6235115;28;20050;-62
2022/01/26 03:11:02;;;;;;;46.35;15.82;;;;;;;;;;6235736;28;20049;-62
2022/01/26 03:14:14;;;;;;;45.22;16.20;;;;;;;;;;6234225;28;20602;-61
2022/01/26 03:20:24;;;;;;;55.25;17.48;;;;;;;;;;6234491;28;20139;-62
2022/01/26 03:36:30;;;;;;;49.60;17.38;;;;;;;;;;6229895;28;20456;-61
2022/01/26 03:39:39;;;;;;;51.10;16.75;;;;;;;;;;6231473;28;20777;-61
2022/01/26 03:42:39;;;;;;;48.35;17.15;;;;;;;;;;6234705;28;20576;-61
2022/01/26 03:45:40;;;;;;;51.13;17.23;;;;;;;;;;6237432;28;20155;-62
2022/01/26 03:48:41;;;;;;;48.47;16.55;;;;;;;;;;6235499;28;20508;-62
2022/01/26 03:51:42;;;;;;;45.97;16.85;;;;;;;;;;6244219;28;20064;-62
2022/01/26 03:54:43;;;;;;;54.35;18.48;;;;;;;;;;6230965;28;20072;-61
2022/01/26 03:57:43;;;;;;;53.20;19.05;;;;;;;;;;6235578;28;20447;-62
2022/01/26 04:00:44;;;;;;;56.92;18.98;;;;;;;;;;6236559;28;20556;-62
2022/01/26 04:03:45;;;;;;;72.10;21.88;;;;;;;;;;6235743;28;20045;-62
2022/01/26 04:06:46;;;;;;;68.15;22.23;;;;;;;;;;6228971;28;20401;-63
2022/01/26 04:09:47;;;;;;;66.38;20.92;;;;;;;;;;6233996;28;20050;-63
2022/01/26 04:12:48;;;;;;;67.60;21.92;;;;;;;;;;6235644;28;20042;-62
2022/01/26 04:15:49;;;;;;;59.97;19.45;;;;;;;;;;6238927;28;20048;-61
2022/01/26 04:18:51;;;;;;;65.45;20.83;;;;;;;;;;6233642;28;20068;-62
2022/01/26 04:24:54;;;;;;;63.67;21.75;;;;;;;;;;6236086;28;20570;-62
2022/01/26 04:27:58;;;;;;;67.70;20.70;;;;;;;;;;6234576;28;20037;-61
2022/01/26 04:30:58;;;;;;;62.88;20.65;;;;;;;;;;6233641;28;20045;-60
2022/01/26 04:33:59;;;;;;;69.38;22.27;;;;;;;;;;6232180;28;20850;-61
2022/01/26 04:40:20;;;;;;;62.45;21.42;;;;;;;;;;6230651;28;20044;-60
2022/01/26 04:43:25;;;;;;;66.53;21.73;;;;;;;;;;6238480;28;20061;-61
2022/01/26 04:46:26;;;;;;;63.80;20.08;;;;;;;;;;6239139;28;20144;-61
2022/01/26 04:49:27;;;;;;;64.72;21.30;;;;;;;;;;6237843;28;20140;-61
2022/01/26 04:52:27;;;;;;;62.15;19.70;;;;;;;;;;6238691;28;20041;-61
2022/01/26 04:55:28;;;;;;;66.28;21.98;;;;;;;;;;6236955;28;20423;-62
2022/01/26 04:58:29;;;;;;;66.13;21.15;;;;;;;;;;6240028;28;20835;-61
2022/01/26 05:01:30;;;;;;;67.55;20.50;;;;;;;;;;6238724;28;20038;-61
2022/01/26 05:04:30;;;;;;;60.90;19.30;;;;;;;;;;6240681;28;20136;-61
2022/01/26 05:07:31;;;;;;;57.53;19.92;;;;;;;;;;6250204;28;20045;-61
2022/01/26 05:10:32;;;;;;;53.90;18.77;;;;;;;;;;6242226;28;20052;-62
2022/01/26 05:13:33;;;;;;;67.15;21.88;;;;;;;;;;6239774;28;20053;-61
2022/01/26 05:16:34;;;;;;;57.90;19.70;;;;;;;;;;6237336;28;20140;-61
2022/01/26 05:19:34;;;;;;;57.03;19.17;;;;;;;;;;6233010;28;20444;-61
2022/01/26 05:22:40;;;;;;;53.35;19.05;;;;;;;;;;6239734;28;20045;-61
2022/01/26 05:25:41;;;;;;;54.10;18.63;;;;;;;;;;6236376;28;20049;-61
2022/01/26 05:28:42;;;;;;;47.42;15.57;;;;;;;;;;6233298;28;20591;-62
2022/01/26 05:31:43;;;;;;;48.20;16.65;;;;;;;;;;6234444;28;20044;-61
2022/01/26 05:34:43;;;;;;;45.97;16.20;;;;;;;;;;6239561;28;20045;-61
2022/01/26 05:37:44;;;;;;;56.38;20.67;;;;;;;;;;6238902;28;20547;-60
2022/01/26 05:40:46;;;;;;;50.05;16.92;;;;;;;;;;6237301;28;20045;-60
2022/01/26 05:43:46;;;;;;;55.20;20.23;;;;;;;;;;6235056;28;20049;-61
2022/01/26 05:46:49;;;;;;;66.95;20.50;;;;;;;;;;6237785;28;20041;-60
2022/01/26 05:49:50;;;;;;;65.40;21.08;;;;;;;;;;6237042;28;20050;-61
2022/01/26 05:52:51;;;;;;;64.90;20.98;;;;;;;;;;6237121;28;20048;-61
2022/01/26 05:55:55;;;;;;;71.18;23.23;;;;;;;;;;6234393;28;20053;-61
2022/01/26 05:58:56;;;;;;;72.30;25.27;;;;;;;;;;6234483;28;20045;-60
2022/01/26 06:01:57;;;;;;;64.93;22.95;;;;;;;;;;6235870;28;20114;-60
2022/01/26 06:04:57;;;;;;;66.80;21.48;;;;;;;;;;6233288;28;20440;-62
2022/01/26 06:07:58;;;;;;;76.75;23.75;;;;;;;;;;6234194;28;20156;-61
2022/01/26 06:11:00;;;;;;;72.80;23.20;;;;;;;;;;6240177;28;20038;-61
2022/01/26 06:14:00;;;;;;;65.90;22.63;;;;;;;;;;6237023;28;20108;-59
2022/01/26 06:17:01;;;;;;;73.47;23.85;;;;;;;;;;6235415;28;20041;-58
2022/01/26 06:20:02;;;;;;;69.53;22.60;;;;;;;;;;6236626;28;20049;-60
2022/01/26 06:23:04;;;;;;;68.95;21.92;;;;;;;;;;6236355;28;20562;-60
2022/01/26 06:26:04;;;;;;;66.95;22.88;;;;;;;;;;6236906;28;20195;-60
2022/01/26 06:29:05;;;;;;;76.43;23.40;;;;;;;;;;6236968;28;20699;-61
2022/01/26 06:32:06;;;;;;;71.75;22.63;;;;;;;;;;6239741;28;20056;-60
2022/01/26 06:35:08;;;;;;;71.80;22.67;;;;;;;;;;6242079;28;20052;-60
2022/01/26 06:38:09;;;;;;;;;;;;;;;;;;6237217;28;20081;-60
2022/01/26 06:41:10;;;;;;;56.25;19.98;;;;;;;;;;6239415;28;19978;-60
2022/01/26 06:44:23;;;;;;;63.95;21.27;;;;;;;;;;6240092;28;20496;-60
2022/01/26 06:50:27;;;;;;;62.95;21.27;;;;;;;;;;6239557;28;20037;-62
2022/01/26 06:53:28;;;;;;;65.20;21.33;;;;;;;;;;6239399;28;20217;-62
2022/01/26 06:56:29;;;;;;;73.00;24.67;;;;;;;;;;6241889;28;20412;-61
2022/01/26 06:59:29;;;;;;;74.65;23.25;;;;;;;;;;6243868;28;20041;-61
2022/01/26 07:02:30;;;;;;;77.65;24.33;;;;;;;;;;6235787;28;20076;-61
2022/01/26 07:05:31;;;;;;;75.78;24.42;;;;;;;;;;6233556;28;20049;-64
2022/01/26 07:08:32;;;;;;;81.72;24.27;;;;;;;;;;6238278;28;20069;-62
2022/01/26 07:11:33;;;;;;;81.47;24.50;;;;;;;;;;6240496;28;20119;-61
2022/01/26 07:21:26;;;;;;;88.70;27.17;;;;;;;;;;6238559;28;20080;-61
2022/01/26 07:24:27;;;;;;;83.25;26.67;;;;;;;;;;6218233;28;20042;-61
2022/01/26 07:27:28;;;;;;;82.15;24.92;;;;;;;;;;6222962;28;20060;-61
2022/01/26 07:30:30;;;;;;;85.20;25.35;;;;;;;;;;6225892;28;20045;-61
2022/01/26 07:33:31;;;;;;;87.13;26.85;;;;;;;;;;6222166;28;20534;-61
2022/01/26 07:36:32;;;;;;;82.55;26.00;;;;;;;;;;6226870;28;20559;-61
2022/01/26 07:39:49;;;;;;;85.97;26.83;;;;;;;;;;6224747;28;20065;-61
2022/01/26 07:42:50;;;;;;;94.18;28.88;;;;;;;;;;6220123;28;20057;-60
2022/01/26 07:45:51;;;;;;;81.65;26.75;;;;;;;;;;6223916;28;20088;-61
2022/01/26 07:48:52;;;;;;;94.43;27.92;;;;;;;;;;6224181;28;20107;-61
2022/01/26 07:51:52;;;;;;;83.35;25.70;;;;;;;;;;6224894;28;20052;-62
2022/01/26 07:54:53;;;;;;;83.40;27.60;;;;;;;;;;6220536;28;20053;-58
2022/01/26 07:57:56;;;;;;;85.57;25.95;;;;;;;;;;6221047;28;20224;-61
2022/01/26 08:00:57;;;;;;;81.07;26.05;;;;;;;;;;6225226;28;20504;-61
2022/01/26 08:03:58;;;;;;;79.88;25.15;;;;;;;;;;6222228;28;20153;-61
2022/01/26 08:06:58;;;;;;;79.70;24.20;;;;;;;;;;6221926;28;20057;-61
2022/01/26 08:09:59;;;;;;;81.07;24.33;;;;;;;;;;6223789;28;20535;-61
2022/01/26 08:13:00;;;;;;;84.50;26.95;;;;;;;;;;6222901;28;20060;-61
2022/01/26 08:16:01;;;;;;;87.00;26.50;;;;;;;;;;6228624;28;20049;-62
2022/01/26 08:19:01;;;;;;;93.55;27.58;;;;;;;;;;6231607;28;20046;-61
2022/01/26 08:22:03;;;;;;;85.55;27.00;;;;;;;;;;6230815;28;20507;-61
2022/01/26 08:25:04;;;;;;;80.47;24.25;;;;;;;;;;6229496;28;20892;-61
2022/01/26 08:28:14;;;;;;;82.60;25.95;;;;;;;;;;6231856;28;20050;-61
2022/01/26 08:31:15;;;;;;;85.10;27.60;;;;;;;;;;6232402;28;20060;-61
2022/01/26 08:34:17;;;;;;;82.63;25.90;;;;;;;;;;6228508;28;20135;-64
2022/01/26 08:37:19;;;;;;;83.78;26.17;;;;;;;;;;6231701;28;20107;-61
2022/01/26 08:40:20;;;;;;;90.90;26.42;;;;;;;;;;6232006;28;20859;-61
2022/01/26 08:43:20;;;;;;;81.45;26.23;;;;;;;;;;6229675;28;20037;-61
2022/01/26 08:46:21;;;;;;;88.60;26.02;;;;;;;;;;6232899;28;20077;-61
2022/01/26 08:49:22;;;;;;;84.82;24.85;;;;;;;;;;6230898;28;20517;-60
2022/01/26 08:52:23;;;;;;;81.30;26.73;;;;;;;;;;6224816;28;20054;-61
2022/01/26 08:55:24;;;;;;;84.65;27.70;;;;;;;;;;6224313;28;20060;-61
2022/01/26 08:58:24;;;;;;;82.72;25.75;;;;;;;;;;6226394;28;20111;-61
2022/01/26 09:01:25;;;;;;;106.78;27.50;;;;;;;;;;6227155;28;20394;-61
2022/01/26 09:04:26;;;;;;;83.50;24.98;;;;;;;;;;6227886;28;20521;-61
2022/01/26 09:07:27;;;;;;;80.43;26.05;;;;;;;;;;6232340;28;20510;-63
2022/01/26 09:10:29;;;;;;;84.50;25.50;;;;;;;;;;6234247;28;20050;-60
2022/01/26 09:13:31;;;;;;;77.65;25.17;;;;;;;;;;6225020;28;20099;-61
2022/01/26 09:16:35;;;;;;;74.18;23.33;;;;;;;;;;6227182;28;20144;-61
2022/01/26 09:19:35;;;;;;;80.00;24.55;;;;;;;;;;6228585;28;20057;-65
2022/01/26 09:22:37;;;;;;;78.15;24.00;;;;;;;;;;6229978;28;20065;-61
2022/01/26 09:25:37;;;;;;;79.32;24.58;;;;;;;;;;6226915;28;20141;-62
2022/01/26 09:28:38;;;;;;;79.00;26.40;;;;;;;;;;6227727;28;20083;-61
2022/01/26 09:31:39;;;;;;;80.50;25.25;;;;;;;;;;6225499;28;20045;-63
2022/01/26 09:34:41;;;;;;;84.88;24.58;;;;;;;;;;6224069;28;20069;-61
2022/01/26 09:37:43;;;;;;;81.55;25.77;;;;;;;;;;6223066;28;20053;-65
2022/01/26 09:40:46;;;;;;;68.73;22.37;;;;;;;;;;6225167;28;20152;-61
2022/01/26 09:43:48;;;;;;;71.93;22.83;;;;;;;;;;6222424;28;20140;-61
2022/01/26 09:46:49;;;;;;;80.03;25.45;;;;;;;;;;6227569;28;20056;-62
2022/01/26 09:49:50;;;;;;;68.68;22.65;;;;;;;;;;6225628;28;20053;-60
2022/01/26 09:52:53;;;;;;;81.72;23.38;;;;;;;;;;6222098;28;20382;-61
2022/01/26 09:55:55;;;;;;;68.95;21.20;;;;;;;;;;6223849;28;20092;-60
2022/01/26 09:58:56;;;;;;;76.35;22.67;;;;;;;;;;6225836;28;20076;-60
2022/01/26 10:01:58;;;;;;;75.88;22.70;;;;;;;;;;6224595;28;20057;-62
2022/01/26 10:05:11;;;;;;;74.18;22.90;;;;;;;;;;6222251;28;20136;-62
2022/01/26 10:18:20;;;;;;;75.75;23.50;;;;;;;;;;6225632;28;20073;-58
2022/01/26 10:21:23;;;;;;;77.00;23.67;;;;;;;;;;6225206;28;20088;-61
2022/01/26 10:24:28;;;;;;;78.57;22.55;;;;;;;;;;6223099;28;20183;-62
2022/01/26 10:27:44;;;;;;;79.65;25.05;;;;;;;;;;6223886;28;20049;-61
2022/01/26 10:30:45;;;;;;;74.72;21.88;;;;;;;;;;6222407;28;20087;-61
2022/01/26 10:34:04;;;;;;;65.97;20.50;;;;;;;;;;6220487;28;20080;-60
2022/01/26 10:37:05;;;;;;;67.03;22.98;;;;;;;;;;6225494;28;20073;-61
2022/01/26 10:40:19;;;;;;;75.95;23.60;;;;;;;;;;6225557;28;20089;-60
2022/01/26 10:43:20;;;;;;;60.30;21.00;;;;;;;;;;6223258;28;20107;-61
2022/01/26 10:46:37;;;;;;;67.70;21.23;;;;;;;;;;6222525;28;21402;-61
2022/01/26 10:50:07;;;;;;;58.13;19.30;;;;;;;;;;6224389;28;20041;-61
2022/01/26 10:53:09;;;;;;;55.83;19.58;;;;;;;;;;6221809;28;20041;-61
2022/01/26 10:56:10;;;;;;;64.15;21.05;;;;;;;;;;6222497;28;20073;-67
2022/01/26 10:59:10;;;;;;;62.10;21.15;;;;;;;;;;6224108;28;20060;-59
2022/01/26 11:02:13;;;;;;;51.83;17.00;;;;;;;;;;6223973;28;20057;-59
2022/01/26 11:05:13;;;;;;;53.00;16.55;;;;;;;;;;6224462;28;20049;-59
2022/01/26 11:08:15;;;;;;;55.80;19.73;;;;;;;;;;6223704;28;20080;-60
2022/01/26 11:11:23;;;;;;;49.93;17.47;;;;;;;;;;6223213;28;20062;-59
2022/01/26 11:14:24;;;;;;;43.50;16.38;;;;;;;;;;6220912;28;20092;-59
2022/01/26 11:17:26;;;;;;;53.20;17.95;;;;;;;;;;6222027;28;20057;-60
2022/01/26 11:20:34;;;;;;;55.70;18.48;;;;;;;;;;6221004;28;20163;-61
2022/01/26 11:23:40;;;;;;;47.83;19.00;;;;;;;;;;6226639;28;20049;-60
2022/01/26 11:26:41;;;;;;;47.22;18.15;;;;;;;;;;6226917;28;20536;-60
2022/01/26 11:29:46;;;;;;;47.58;17.77;;;;;;;;;;6222860;28;20060;-60
2022/01/26 11:32:59;;;;;;;49.60;17.75;;;;;;;;;;6222164;28;21280;-61
2022/01/26 11:36:01;;;;;;;46.58;18.40;;;;;;;;;;6222770;28;20080;-58
2022/01/26 11:45:36;;;;;;;50.17;18.23;;;;;;;;;;6219969;28;20131;-60
2022/01/26 11:48:38;;;;;;;56.65;21.10;;;;;;;;;;6228183;28;20060;-60
2022/01/26 11:51:50;;;;;;;57.10;20.25;;;;;;;;;;6231166;28;20796;-61
2022/01/26 11:54:53;;;;;;;53.60;19.77;;;;;;;;;;6232015;28;20045;-60
2022/01/26 11:58:19;;;;;;;61.13;22.02;;;;;;;;;;6233404;28;20080;-60
2022/01/26 12:01:28;;;;;;;55.90;19.15;;;;;;;;;;6232959;28;20063;-60
2022/01/26 12:04:36;;;;;;;55.90;21.30;;;;;;;;;;6231533;28;20037;-61
2022/01/26 12:08:00;;;;;;;56.67;20.42;;;;;;;;;;6231409;28;20080;-59
2022/01/26 12:11:03;;;;;;;49.85;18.70;;;;;;;;;;6232794;28;20042;-59
2022/01/26 12:14:10;;;;;;;57.88;22.60;;;;;;;;;;6232598;28;20411;-59
2022/01/26 12:17:24;;;;;;;52.45;19.55;;;;;;;;;;6233433;28;20084;-59
2022/01/26 12:34:30;;;;;;;43.45;18.15;;;;;;;;;;6232414;28;20060;-60
2022/01/26 12:43:56;;;;;;;49.22;16.38;;;;;;;;;;6230776;28;20065;-61
2022/01/26 12:46:57;;;;;;;51.63;19.63;;;;;;;;;;6231508;28;20484;-60
2022/01/26 12:49:58;;;;;;;52.13;18.38;;;;;;;;;;6232976;28;20057;-61
2022/01/26 12:52:59;;;;;;;52.65;18.95;;;;;;;;;;6229248;28;20781;-61
2022/01/26 12:56:02;;;;;;;60.60;19.70;;;;;;;;;;6234063;28;20037;-61
2022/01/26 12:59:06;;;;;;;59.03;20.20;;;;;;;;;;6228122;28;20156;-60
2022/01/26 13:02:07;;;;;;;56.65;19.52;;;;;;;;;;6226880;28;20136;-60
2022/01/26 13:05:08;;;;;;;59.28;22.10;;;;;;;;;;6228788;28;20447;-60
2022/01/26 13:08:12;;;;;;;55.57;20.43;;;;;;;;;;6233344;28;20066;-60
2022/01/26 13:11:21;;;;;;;60.83;20.85;;;;;;;;;;6229968;28;20058;-60
2022/01/26 13:14:27;;;;;;;65.13;21.52;;;;;;;;;;6231474;28;20073;-59
2022/01/26 13:24:09;;;;;;;58.58;19.98;;;;;;;;;;6226759;28;20137;-60
2022/01/26 13:30:37;;;;;;;57.33;21.23;;;;;;;;;;6228574;28;20072;-57
2022/01/26 13:53:12;;;;;;;67.43;22.55;;;;;;;;;;6230420;28;20080;-59
2022/01/26 13:56:35;;;;;;;63.97;22.30;;;;;;;;;;6230744;28;20045;-58
2022/01/26 13:59:48;;;;;;;61.13;20.80;;;;;;;;;;6227328;28;20136;-59
2022/01/26 14:02:55;;;;;;;58.42;20.40;;;;;;;;;;6222617;28;20965;-59
2022/01/26 14:05:55;;;;;;;50.17;19.15;;;;;;;;;;6225766;28;20053;-60
2022/01/26 14:08:56;;;;;;;51.25;19.88;;;;;;;;;;6229492;28;20060;-61
2022/01/26 14:11:59;;;;;;;58.05;19.77;;;;;;;;;;6230288;28;20084;-59
2022/01/26 14:15:00;;;;;;;51.55;18.05;;;;;;;;;;6226880;28;20041;-59
2022/01/26 14:18:11;;;;;;;58.40;20.67;;;;;;;;;;6228803;28;20088;-59
2022/01/26 14:24:30;;;;;;;50.17;18.90;;;;;;;;;;6228530;28;20045;-59
2022/01/26 14:27:40;;;;;;;46.13;17.27;;;;;;;;;;6229884;28;20147;-58
2022/01/26 14:30:57;;;;;;;41.97;17.65;;;;;;;;;;6229758;28;20087;-59
2022/01/26 14:39:37;;;;;;;44.80;17.67;;;;;;;;;;6229189;28;20509;-59
2022/01/26 14:40:51;;;;;;;47.88;18.13;;;;;;;;;;6230880;28;20080;-59
2022/01/26 14:54:16;;;;;;;40.97;17.23;;;;;;;;;;6227077;28;20049;-61
2022/01/26 15:01:18;;;;;;;44.15;18.65;;;;;;;;;;6230376;28;20045;-60
2022/01/26 15:44:06;;;;;;;62.75;23.20;;;;;;;;;;6220201;28;20069;-60
2022/01/26 16:16:36;;;;;;;;;;;;;;;;;;6221108;28;20050;-59
2022/01/26 16:38:52;;;;;;;44.85;15.85;;;;;;;;;;6221350;28;20057;-61
2022/01/26 18:04:08;;;;;;;51.40;17.48;;;;;;;;;;6232479;28;20045;-60
2022/01/26 18:33:07;;;;;;;64.15;22.77;;;;;;;;;;6228280;28;20056;-60
2022/01/26 18:40:15;;;;;;;72.43;23.52;;;;;;;;;;6228416;28;20131;-61
2022/01/26 18:49:39;;;;;;;59.33;21.25;;;;;;;;;;6230442;28;20052;-61
2022/01/26 18:52:40;;;;;;;68.32;22.75;;;;;;;;;;6229985;28;20048;-62
2022/01/26 18:55:41;;;;;;;65.60;22.00;;;;;;;;;;6227017;28;20092;-63
2022/01/26 18:58:42;;;;;;;66.80;22.60;;;;;;;;;;6228348;28;20111;-63
2022/01/26 19:01:43;;;;;;;69.32;21.52;;;;;;;;;;6225769;28;20049;-63
2022/01/26 19:04:47;;;;;;;62.22;21.35;;;;;;;;;;6227833;28;20068;-61
2022/01/26 19:07:47;;;;;;;66.53;23.02;;;;;;;;;;6225767;28;20606;-65
2022/01/26 19:10:48;;;;;;;63.13;20.88;;;;;;;;;;6228191;28;20099;-62
2022/01/26 19:13:50;;;;;;;51.72;19.17;;;;;;;;;;6231692;28;20480;-62
2022/01/26 19:17:02;;;;;;;54.33;20.67;;;;;;;;;;6226919;28;20049;-60
2022/01/26 19:26:11;;;;;;;57.90;21.02;;;;;;;;;;6228954;28;20429;-65
2022/01/26 19:29:26;;;;;;;60.17;21.05;;;;;;;;;;6230711;28;20061;-62
2022/01/26 19:52:16;;;;;;;62.90;21.98;;;;;;;;;;6229229;28;20357;-63
2022/01/26 19:55:17;;;;;;;56.72;20.67;;;;;;;;;;6226505;28;20088;-63
2022/01/26 19:58:18;;;;;;;58.38;23.75;;;;;;;;;;6227955;28;20124;-63
2022/01/26 20:01:19;;;;;;;60.22;22.92;;;;;;;;;;6228291;28;20508;-62
2022/01/26 20:04:20;;;;;;;58.65;20.30;;;;;;;;;;6229485;28;20046;-61
2022/01/26 20:07:26;;;;;;;68.68;23.85;;;;;;;;;;6226007;28;20161;-64
2022/01/26 20:10:31;;;;;;;68.65;25.02;;;;;;;;;;6227038;28;20045;-63
2022/01/26 20:13:37;;;;;;;77.97;26.42;;;;;;;;;;6230383;28;20060;-61
2022/01/26 20:16:38;;;;;;;74.70;27.05;;;;;;;;;;6230725;28;20045;-62
2022/01/26 20:19:39;;;;;;;86.85;29.50;;;;;;;;;;6232348;28;20064;-62
2022/01/26 20:22:39;;;;;;;85.57;29.55;;;;;;;;;;6233153;28;20075;-62
2022/01/26 20:25:42;;;;;;;96.50;30.83;;;;;;;;;;6231978;28;20065;-63
2022/01/26 20:28:44;;;;;;;97.28;33.58;;;;;;;;;;6232299;28;20045;-63
2022/01/26 20:31:45;;;;;;;99.70;35.42;;;;;;;;;;6232416;28;20064;-62
2022/01/26 20:34:46;;;;;;;110.95;38.80;;;;;;;;;;6233579;28;20061;-61
2022/01/26 20:37:47;;;;;;;107.80;34.45;;;;;;;;;;6230475;28;20049;-60
2022/01/26 20:40:48;;;;;;;104.82;35.35;;;;;;;;;;6231764;28;20412;-61
2022/01/26 20:43:49;;;;;;;87.95;31.70;;;;;;;;;;6233631;28;20072;-61
2022/01/26 20:46:50;;;;;;;92.82;31.95;;;;;;;;;;6230571;28;20048;-61
2022/01/26 20:49:50;;;;;;;85.70;30.15;;;;;;;;;;6232328;28;20049;-62
2022/01/26 20:52:52;;;;;;;76.30;27.40;;;;;;;;;;6230777;28;20048;-63
2022/01/26 20:55:53;;;;;;;81.53;27.70;;;;;;;;;;6231406;28;20053;-63
2022/01/26 20:58:54;;;;;;;79.60;29.02;;;;;;;;;;6232499;28;20554;-63
2022/01/26 21:01:55;;;;;;;83.45;28.83;;;;;;;;;;6231765;28;20111;-62
2022/01/26 21:04:55;;;;;;;82.65;28.40;;;;;;;;;;6231021;28;20054;-62
2022/01/26 21:07:58;;;;;;;90.10;30.67;;;;;;;;;;6230577;28;20120;-62
2022/01/26 21:10:58;;;;;;;100.13;31.58;;;;;;;;;;6232349;28;20740;-61
2022/01/26 21:13:59;;;;;;;97.65;32.88;;;;;;;;;;6228912;28;20045;-61
2022/01/26 21:17:02;;;;;;;97.43;32.47;;;;;;;;;;6227300;28;20069;-61
2022/01/26 21:20:05;;;;;;;117.05;36.08;;;;;;;;;;6225452;28;20602;-61
2022/01/26 21:23:06;;;;;;;111.10;36.35;;;;;;;;;;6223898;28;20057;-62
2022/01/26 21:26:07;;;;;;;98.45;34.55;;;;;;;;;;6223958;28;20163;-62
2022/01/26 21:29:07;;;;;;;105.68;35.83;;;;;;;;;;6225036;28;20064;-62
2022/01/26 21:32:08;;;;;;;96.60;33.70;;;;;;;;;;6225341;28;20049;-61
2022/01/26 21:35:09;;;;;;;81.28;28.70;;;;;;;;;;6223152;28;20056;-62
2022/01/26 21:38:11;;;;;;;83.35;28.23;;;;;;;;;;6223743;28;20136;-61
2022/01/26 21:41:13;;;;;;;85.63;30.17;;;;;;;;;;6224403;28;20045;-61
2022/01/26 21:44:14;;;;;;;84.18;28.08;;;;;;;;;;6223801;28;20049;-62
2022/01/26 21:47:15;;;;;;;85.72;29.00;;;;;;;;;;6224564;28;20535;-61
2022/01/26 21:50:17;;;;;;;74.47;26.05;;;;;;;;;;6232498;28;20127;-61
2022/01/26 21:53:18;;;;;;;74.55;25.80;;;;;;;;;;6232370;28;20051;-60
2022/01/26 21:56:20;;;;;;;83.90;25.33;;;;;;;;;;6226441;28;20041;-61
2022/01/26 21:59:21;;;;;;;78.07;26.40;;;;;;;;;;6225156;28;20076;-61
2022/01/26 22:02:21;;;;;;;81.28;26.27;;;;;;;;;;6223483;28;20144;-61
2022/01/26 22:05:23;;;;;;;77.97;26.15;;;;;;;;;;6225036;28;20052;-62
2022/01/26 22:08:24;;;;;;;77.47;24.77;;;;;;;;;;6226890;28;20088;-61
2022/01/26 22:11:25;;;;;;;76.53;26.77;;;;;;;;;;6228982;28;20069;-62
2022/01/26 22:14:25;;;;;;;82.30;26.45;;;;;;;;;;6231775;28;20049;-61
2022/01/26 22:17:26;;;;;;;82.30;28.23;;;;;;;;;;6229444;28;20785;-62
2022/01/26 22:20:27;;;;;;;82.32;25.50;;;;;;;;;;6228022;28;20069;-61
2022/01/26 22:23:28;;;;;;;79.53;27.08;;;;;;;;;;6231087;28;20037;-61
2022/01/26 22:26:34;;;;;;;84.43;27.67;;;;;;;;;;6225177;28;20060;-61
2022/01/26 22:29:34;;;;;;;86.28;27.73;;;;;;;;;;6223717;28;20120;-63
2022/01/26 22:32:36;;;;;;;85.18;27.40;;;;;;;;;;6238892;28;20037;-59
2022/01/26 22:35:37;;;;;;;77.43;28.27;;;;;;;;;;6229158;28;20077;-58
2022/01/26 22:38:38;;;;;;;75.10;26.70;;;;;;;;;;6240694;28;20516;-61
2022/01/26 22:41:39;;;;;;;77.28;25.35;;;;;;;;;;6240237;28;20042;-62
2022/01/26 22:44:40;;;;;;;81.25;27.95;;;;;;;;;;6237819;28;20048;-62
2022/01/26 22:47:40;;;;;;;82.82;27.77;;;;;;;;;;6241870;28;20057;-62
2022/01/26 22:50:41;;;;;;;79.10;26.25;;;;;;;;;;6237755;28;20065;-62
2022/01/26 22:53:42;;;;;;;70.35;25.10;;;;;;;;;;6238022;28;20071;-61
2022/01/26 22:56:42;;;;;;;74.32;25.77;;;;;;;;;;6237493;28;20045;-62
2022/01/26 22:59:43;;;;;;;72.15;25.98;;;;;;;;;;6233864;28;20473;-61
2022/01/26 23:02:47;;;;;;;66.68;24.70;;;;;;;;;;6233188;28;20481;-61
2022/01/26 23:06:05;;;;;;;68.28;24.25;;;;;;;;;;6236306;28;20041;-61
2022/01/26 23:09:05;;;;;;;64.38;23.08;;;;;;;;;;6237985;28;20052;-62
2022/01/26 23:12:07;;;;;;;71.05;23.17;;;;;;;;;;6240348;28;20523;-61
2022/01/26 23:15:08;;;;;;;64.10;22.92;;;;;;;;;;6241212;28;20072;-61
2022/01/26 23:18:09;;;;;;;59.92;21.25;;;;;;;;;;6242123;28;20412;-61
2022/01/26 23:21:10;;;;;;;63.58;21.60;;;;;;;;;;6240911;28;20069;-62
2022/01/26 23:24:11;;;;;;;68.82;24.08;;;;;;;;;;6241965;28;20404;-61
2022/01/26 23:27:35;;;;;;;68.65;23.10;;;;;;;;;;6242704;28;20052;-61
2022/01/26 23:57:19;;;;;;;68.22;21.55;;;;;;;;;;6228111;28;20608;-61
